EZY97CB EGLL-EDDH
Flight info
| Callsign | EZY97CB |
|---|---|
| Flight time | N/A |
| Altitude | 37000 |
| Route | BPK Q295 SOMVA DCT MAVAS DCT VALAM DCT GASTU DCT OSTOR/N0405F230 T904 RIBSO RIBSO3S |
| Aircraft | A320/M-SDE3FGHIRWY/LB1 |
Departure
| Time | N/A |
|---|---|
| Airport | London Heathrow Airport (EGLL) |
Arrival
| Time | 2026-04-23 19:08 |
|---|---|
| Airport | Hamburg Helmut Schmidt Airport (EDDH) |
| Time | Latitude | Longitude | Altitude | Speed | Heading |
|---|---|---|---|---|---|
| 2026-04-23 18:34 | 53.13084 | 5.79786 | 37421 ft | 455 kts | 70° |
| 2026-04-23 18:34 | 53.14251 | 5.84677 | 37421 ft | 455 kts | 70° |
| 2026-04-23 18:35 | 53.16588 | 5.94488 | 37418 ft | 456 kts | 70° |
| 2026-04-23 18:35 | 53.18927 | 6.04320 | 37417 ft | 456 kts | 70° |
| 2026-04-23 18:36 | 53.21175 | 6.14147 | 37416 ft | 456 kts | 72° |
| 2026-04-23 18:36 | 53.23207 | 6.24153 | 37401 ft | 455 kts | 74° |
| 2026-04-23 18:37 | 53.25165 | 6.34196 | 37403 ft | 455 kts | 74° |
| 2026-04-23 18:37 | 53.27159 | 6.44233 | 37399 ft | 455 kts | 73° |
| 2026-04-23 18:38 | 53.29177 | 6.54252 | 37397 ft | 455 kts | 73° |
| 2026-04-23 18:38 | 53.31196 | 6.64280 | 37397 ft | 455 kts | 73° |
| 2026-04-23 18:39 | 53.33195 | 6.74316 | 37395 ft | 455 kts | 73° |
| 2026-04-23 18:39 | 53.35181 | 6.84363 | 37379 ft | 455 kts | 73° |
| 2026-04-23 18:40 | 53.37156 | 6.94425 | 37372 ft | 455 kts | 73° |
| 2026-04-23 18:40 | 53.39126 | 7.04506 | 37114 ft | 455 kts | 73° |
| 2026-04-23 18:40 | 53.40107 | 7.09551 | 36852 ft | 455 kts | 73° |
| 2026-04-23 18:41 | 53.41087 | 7.14584 | 36588 ft | 456 kts | 73° |
| 2026-04-23 18:41 | 53.42072 | 7.19650 | 36336 ft | 456 kts | 73° |
| 2026-04-23 18:41 | 53.43053 | 7.24710 | 36082 ft | 457 kts | 73° |
| 2026-04-23 18:41 | 53.44032 | 7.29781 | 35833 ft | 458 kts | 73° |
| 2026-04-23 18:42 | 53.45011 | 7.34871 | 35586 ft | 458 kts | 73° |
| 2026-04-23 18:42 | 53.45987 | 7.39961 | 35340 ft | 459 kts | 73° |
| 2026-04-23 18:42 | 53.46965 | 7.45071 | 35094 ft | 460 kts | 73° |
| 2026-04-23 18:42 | 53.47935 | 7.50154 | 34847 ft | 451 kts | 73° |
| 2026-04-23 18:43 | 53.48878 | 7.55117 | 34608 ft | 441 kts | 73° |
| 2026-04-23 18:43 | 53.49796 | 7.59961 | 34363 ft | 431 kts | 73° |
| 2026-04-23 18:43 | 53.50698 | 7.64725 | 34095 ft | 426 kts | 73° |
| 2026-04-23 18:43 | 53.51589 | 7.69449 | 33824 ft | 422 kts | 73° |
| 2026-04-23 18:44 | 53.52475 | 7.74138 | 33549 ft | 420 kts | 73° |
| 2026-04-23 18:44 | 53.53355 | 7.78802 | 33280 ft | 417 kts | 73° |
| 2026-04-23 18:44 | 53.54223 | 7.83448 | 33024 ft | 415 kts | 73° |
| 2026-04-23 18:44 | 53.55081 | 7.88065 | 32764 ft | 413 kts | 73° |
| 2026-04-23 18:45 | 53.55934 | 7.92654 | 32498 ft | 411 kts | 73° |
| 2026-04-23 18:45 | 53.56790 | 7.97239 | 31806 ft | 415 kts | 72° |
| 2026-04-23 18:45 | 53.57653 | 8.01865 | 31381 ft | 410 kts | 72° |
| 2026-04-23 18:45 | 53.58495 | 8.06398 | 30764 ft | 402 kts | 72° |
| 2026-04-23 18:46 | 53.59318 | 8.10853 | 29970 ft | 396 kts | 72° |
| 2026-04-23 18:46 | 53.60129 | 8.15266 | 29112 ft | 392 kts | 72° |
| 2026-04-23 18:46 | 53.60929 | 8.19635 | 28272 ft | 387 kts | 72° |
| 2026-04-23 18:46 | 53.61727 | 8.23982 | 26868 ft | 397 kts | 72° |
| 2026-04-23 18:47 | 53.62554 | 8.28493 | 25431 ft | 408 kts | 71° |
| 2026-04-23 18:47 | 53.63400 | 8.33137 | 24352 ft | 421 kts | 71° |
| 2026-04-23 18:47 | 53.64264 | 8.37898 | 23805 ft | 428 kts | 71° |
| 2026-04-23 18:47 | 53.65129 | 8.42684 | 23044 ft | 425 kts | 71° |
| 2026-04-23 18:48 | 53.65994 | 8.47468 | 22385 ft | 425 kts | 71° |
| 2026-04-23 18:48 | 53.66855 | 8.52230 | 21712 ft | 423 kts | 71° |
| 2026-04-23 18:48 | 53.67706 | 8.56961 | 21069 ft | 420 kts | 71° |
| 2026-04-23 18:48 | 53.68552 | 8.61666 | 20431 ft | 418 kts | 70° |
| 2026-04-23 18:49 | 53.69394 | 8.66353 | 19812 ft | 416 kts | 70° |
| 2026-04-23 18:49 | 53.70229 | 8.71013 | 19209 ft | 414 kts | 70° |
| 2026-04-23 18:49 | 53.71058 | 8.75644 | 18637 ft | 411 kts | 70° |
| 2026-04-23 18:49 | 53.71870 | 8.80191 | 18013 ft | 409 kts | 70° |
| 2026-04-23 18:50 | 53.72419 | 8.83284 | 17664 ft | 405 kts | 70° |
| 2026-04-23 18:50 | 53.73487 | 8.89336 | 16963 ft | 399 kts | 71° |
| 2026-04-23 18:50 | 53.74271 | 8.93807 | 16464 ft | 395 kts | 70° |
| 2026-04-23 18:50 | 53.75048 | 8.98233 | 15952 ft | 391 kts | 70° |
| 2026-04-23 18:51 | 53.75819 | 9.02626 | 15297 ft | 391 kts | 70° |
| 2026-04-23 18:51 | 53.76599 | 9.07053 | 14530 ft | 395 kts | 70° |
| 2026-04-23 18:51 | 53.77383 | 9.11513 | 13742 ft | 397 kts | 70° |
| 2026-04-23 18:51 | 53.78169 | 9.15998 | 12908 ft | 398 kts | 70° |
| 2026-04-23 18:52 | 53.78952 | 9.20496 | 12083 ft | 399 kts | 70° |
| 2026-04-23 18:52 | 53.79714 | 9.24908 | 11500 ft | 387 kts | 70° |
| 2026-04-23 18:52 | 53.80429 | 9.29112 | 11302 ft | 355 kts | 70° |
| 2026-04-23 18:52 | 53.81051 | 9.32986 | 11138 ft | 330 kts | 74° |
| 2026-04-23 18:53 | 53.81347 | 9.36721 | 10966 ft | 311 kts | 82° |
| 2026-04-23 18:53 | 53.81448 | 9.40303 | 10796 ft | 302 kts | 82° |
| 2026-04-23 18:53 | 53.81551 | 9.43833 | 10628 ft | 300 kts | 82° |
| 2026-04-23 18:53 | 53.81654 | 9.47347 | 10466 ft | 299 kts | 82° |
| 2026-04-23 18:54 | 53.81754 | 9.50879 | 10325 ft | 299 kts | 82° |
| 2026-04-23 18:54 | 53.81851 | 9.54387 | 10255 ft | 298 kts | 82° |
| 2026-04-23 18:54 | 53.81946 | 9.57889 | 10264 ft | 298 kts | 82° |
| 2026-04-23 18:54 | 53.82025 | 9.61398 | 10261 ft | 300 kts | 87° |
| 2026-04-23 18:55 | 53.81626 | 9.64864 | 10257 ft | 301 kts | 108° |
| 2026-04-23 18:55 | 53.80596 | 9.67888 | 10263 ft | 298 kts | 120° |
| 2026-04-23 18:55 | 53.79751 | 9.71072 | 10258 ft | 289 kts | 96° |
| 2026-04-23 18:55 | 53.79755 | 9.74290 | 10250 ft | 263 kts | 70° |
| 2026-04-23 18:56 | 53.80168 | 9.76163 | 10255 ft | 253 kts | 54° |
| 2026-04-23 18:56 | 53.81726 | 9.78931 | 10255 ft | 240 kts | 25° |
| 2026-04-23 18:56 | 53.83261 | 9.79894 | 10253 ft | 234 kts | 5° |
| 2026-04-23 18:56 | 53.84327 | 9.80003 | 10257 ft | 233 kts | 358° |
| 2026-04-23 18:57 | 53.85938 | 9.80373 | 10219 ft | 237 kts | 15° |
| 2026-04-23 18:57 | 53.87384 | 9.81750 | 10085 ft | 243 kts | 37° |
| 2026-04-23 18:57 | 53.88414 | 9.84052 | 9955 ft | 251 kts | 60° |
| 2026-04-23 18:57 | 53.88809 | 9.86983 | 9816 ft | 263 kts | 86° |
| 2026-04-23 18:58 | 53.88408 | 9.90039 | 9685 ft | 273 kts | 114° |
| 2026-04-23 18:58 | 53.87316 | 9.92694 | 9515 ft | 276 kts | 124° |
| 2026-04-23 18:58 | 53.86281 | 9.95398 | 8970 ft | 271 kts | 113° |
| 2026-04-23 18:58 | 53.85558 | 9.98306 | 8413 ft | 265 kts | 102° |
| 2026-04-23 18:59 | 53.85168 | 10.01319 | 7865 ft | 259 kts | 91° |
| 2026-04-23 18:59 | 53.84963 | 10.04341 | 7327 ft | 257 kts | 90° |
| 2026-04-23 18:59 | 53.84758 | 10.07348 | 6807 ft | 256 kts | 90° |
| 2026-04-23 18:59 | 53.84555 | 10.10323 | 6261 ft | 254 kts | 90° |
| 2026-04-23 19:00 | 53.84351 | 10.13282 | 5719 ft | 252 kts | 90° |
| 2026-04-23 19:00 | 53.84242 | 10.16207 | 5180 ft | 245 kts | 79° |
| 2026-04-23 19:00 | 53.84525 | 10.18985 | 4646 ft | 236 kts | 65° |
| 2026-04-23 19:00 | 53.85168 | 10.21479 | 4136 ft | 227 kts | 52° |
| 2026-04-23 19:01 | 53.86089 | 10.23585 | 4007 ft | 223 kts | 44° |
| 2026-04-23 19:01 | 53.86990 | 10.25900 | 4009 ft | 255 kts | 64° |
| 2026-04-23 19:01 | 53.87201 | 10.28988 | 4004 ft | 276 kts | 94° |
| 2026-04-23 19:01 | 53.86512 | 10.32056 | 3999 ft | 285 kts | 123° |
| 2026-04-23 19:02 | 53.85050 | 10.34322 | 3997 ft | 289 kts | 152° |
| 2026-04-23 19:02 | 53.83162 | 10.35309 | 3703 ft | 283 kts | 179° |
| 2026-04-23 19:02 | 53.81254 | 10.34844 | 3284 ft | 276 kts | 201° |
| 2026-04-23 19:02 | 53.79475 | 10.33706 | 2976 ft | 271 kts | 215° |
| 2026-04-23 19:03 | 53.78160 | 10.31570 | 2820 ft | 258 kts | 246° |
| 2026-04-23 19:03 | 53.77701 | 10.28764 | 2662 ft | 241 kts | 274° |
| 2026-04-23 19:03 | 53.77244 | 10.26165 | 2614 ft | 236 kts | 238° |
| 2026-04-23 19:03 | 53.76151 | 10.24206 | 2684 ft | 218 kts | 233° |
| 2026-04-23 19:04 | 53.75082 | 10.22415 | 2877 ft | 216 kts | 229° |
| 2026-04-23 19:04 | 53.74048 | 10.20603 | 3076 ft | 214 kts | 235° |
| 2026-04-23 19:04 | 53.73048 | 10.18783 | 3207 ft | 205 kts | 232° |
| 2026-04-23 19:04 | 53.72039 | 10.17112 | 3005 ft | 202 kts | 231° |
| 2026-04-23 19:05 | 53.71063 | 10.15432 | 2822 ft | 199 kts | 237° |
| 2026-04-23 19:05 | 53.70229 | 10.13600 | 2526 ft | 197 kts | 243° |
| 2026-04-23 19:05 | 53.69380 | 10.11721 | 2074 ft | 206 kts | 238° |
| 2026-04-23 19:05 | 53.68460 | 10.09857 | 1743 ft | 205 kts | 237° |
| 2026-04-23 19:06 | 53.67557 | 10.08003 | 1419 ft | 203 kts | 238° |
| 2026-04-23 19:06 | 53.66709 | 10.06216 | 1271 ft | 186 kts | 237° |
| 2026-04-23 19:06 | 53.65891 | 10.04622 | 1002 ft | 175 kts | 235° |
| 2026-04-23 19:06 | 53.65139 | 10.03066 | 597 ft | 168 kts | 235° |
| 2026-04-23 19:07 | 53.64408 | 10.01578 | 353 ft | 163 kts | 237° |
| 2026-04-23 19:07 | 53.63689 | 10.00144 | 140 ft | 158 kts | 233° |
| 2026-04-23 19:07 | 53.63010 | 9.98783 | 49 ft | 146 kts | 232° |
| 2026-04-23 19:07 | 53.62538 | 9.97807 | 44 ft | 64 kts | 231° |
| 2026-04-23 19:08 | 53.62393 | 9.97521 | 44 ft | 21 kts | 231° |
| 2026-04-23 19:08 | 53.62300 | 9.97374 | 45 ft | 17 kts | 199° |
| 2026-04-23 19:08 | 53.62201 | 9.97426 | 43 ft | 15 kts | 132° |
| 2026-04-23 19:08 | 53.62182 | 9.97549 | 43 ft | 10 kts | 84° |
| 2026-04-23 19:09 | 53.62209 | 9.97639 | 43 ft | 8 kts | 50° |
| 2026-04-23 19:09 | 53.62245 | 9.97712 | 43 ft | 12 kts | 52° |
| 2026-04-23 19:09 | 53.62327 | 9.97881 | 44 ft | 17 kts | 51° |
| 2026-04-23 19:09 | 53.62398 | 9.98030 | 44 ft | 15 kts | 49° |
| 2026-04-23 19:10 | 53.62470 | 9.98143 | 45 ft | 14 kts | 42° |
| 2026-04-23 19:10 | 53.62536 | 9.98243 | 45 ft | 13 kts | 47° |
| 2026-04-23 19:10 | 53.62606 | 9.98383 | 46 ft | 16 kts | 50° |
| 2026-04-23 19:10 | 53.62672 | 9.98517 | 46 ft | 14 kts | 50° |
| 2026-04-23 19:11 | 53.62732 | 9.98637 | 46 ft | 13 kts | 50° |
| 2026-04-23 19:11 | 53.62786 | 9.98745 | 46 ft | 11 kts | 50° |
| 2026-04-23 19:11 | 53.62861 | 9.98896 | 47 ft | 22 kts | 50° |
| 2026-04-23 19:11 | 53.62950 | 9.99077 | 47 ft | 21 kts | 50° |
| 2026-04-23 19:12 | 53.63016 | 9.99210 | 48 ft | 23 kts | 51° |
| 2026-04-23 19:12 | 53.63081 | 9.99359 | 48 ft | 1 kts | 55° |
| 2026-04-23 19:12 | 53.63124 | 9.99463 | 48 ft | 21 kts | 55° |
| 2026-04-23 19:12 | 53.63215 | 9.99653 | 48 ft | 13 kts | 51° |
| 2026-04-23 19:13 | 53.63219 | 9.99661 | 48 ft | 0 kts | 52° |
| 2026-04-23 19:15 | 53.63242 | 9.99705 | 49 ft | 14 kts | 46° |
| 2026-04-23 19:15 | 53.63335 | 9.99880 | 50 ft | 20 kts | 49° |
| 2026-04-23 19:15 | 53.63422 | 10.00046 | 51 ft | 18 kts | 48° |
| 2026-04-23 19:16 | 53.63407 | 10.00193 | 48 ft | 13 kts | 130° |
| 2026-04-23 19:16 | 53.63338 | 10.00236 | 50 ft | 0 kts | 173° |
| 2026-04-23 19:17 | 53.63315 | 10.00242 | 50 ft | 6 kts | 171° |
| 2026-04-23 19:17 | 53.63296 | 10.00300 | 50 ft | 8 kts | 92° |
| 2026-04-23 19:17 | 53.63295 | 10.00370 | 50 ft | 0 kts | 88° |
| 2026-04-23 19:17 | 53.63295 | 10.00372 | 50 ft | 0 kts | 88° |